アンカレッジ/テッド・スティーブンス の空港の天気 - METARとTAF

テッド・スティーブンス・アンカレッジ国際空港 ( PANC / ANC ) - アメリカ アラスカ州アンカレッジ
飛行場実況気象(Metar)
観測時間12/15 02:53 AKST (12/15 11:53 UTC)
風向・風速北北東 4m/s
視程10km以上
天気現象
なし
気温-8.3℃
湿度83%
気圧994.2hPa
METARPANC 151153Z COR 02007KT 10SM CLR M08/M11 A2935 RMK AO2 SLP942 60006 70040 4/014 T10831106 11078 21083 51014 $
過去の天気等 Google飛行場航空写真 Wunderground天気予報

過去48時間のMETAR

飛行場予報(TAF)
発表時間: 12/15 02:32 AKST (12/15 11:32 UTC)
予報対象時間: 15日3時 AKST ~ 16日9時 AKST
風向・風速北 6m/s
視程10km以上
天気現象周辺でしゅう雨
全天の4割程度の雲 雲底高度 760m
全天を覆う雲 雲底高度 2130m
15日5時 AKST ~ 15日7時 AKST に一時的に
視程4830m
天気現象弱い雪 もや
全天の8割程度の雲 雲底高度 760m
PANC 151132Z 1512/1618 01011KT P6SM VCSH SCT025 OVC070
TEMPO 1514/1516 3SM -SN BR BKN025